sensor_id;sensor_type;location;lat;lon;timestamp;pressure;altitude;pressure_sealevel;temperature;humidity
61571;BME280;47463;49.884;10.010;2023-04-01T00:00:01;100300;;;8.6;82
61571;BME280;47463;49.884;10.010;2023-04-01T00:05:01;100300;;;8.7;82
61571;BME280;47463;49.884;10.010;2023-04-01T00:10:01;100310;;;8.8;81
61571;BME280;47463;49.884;10.010;2023-04-01T00:15:01;100310;;;8.9;81
61571;BME280;47463;49.884;10.010;2023-04-01T00:20:01;100300;;;8.9;80
61571;BME280;47463;49.884;10.010;2023-04-01T00:25:01;100290;;;8.9;80
61571;BME280;47463;49.884;10.010;2023-04-01T00:30:01;100300;;;8.9;80
61571;BME280;47463;49.884;10.010;2023-04-01T00:35:01;100290;;;8.9;80
61571;BME280;47463;49.884;10.010;2023-04-01T00:40:01;100300;;;9;80
61571;BME280;47463;49.884;10.010;2023-04-01T00:45:21;100290;;;8.9;80
61571;BME280;47463;49.884;10.010;2023-04-01T00:50:01;100300;;;8.8;80
61571;BME280;47463;49.884;10.010;2023-04-01T00:55:01;100290;;;8.8;80
61571;BME280;47463;49.884;10.010;2023-04-01T01:00:01;100300;;;8.8;80
61571;BME280;47463;49.884;10.010;2023-04-01T01:05:01;100290;;;8.8;80
61571;BME280;47463;49.884;10.010;2023-04-01T01:10:02;100290;;;8.7;80
61571;BME280;47463;49.884;10.010;2023-04-01T01:15:02;100290;;;8.8;80
61571;BME280;47463;49.884;10.010;2023-04-01T01:20:36;100290;;;8.8;80
61571;BME280;47463;49.884;10.010;2023-04-01T01:25:04;100290;;;8.9;79
61571;BME280;47463;49.884;10.010;2023-04-01T01:30:07;100300;;;8.7;80
61571;BME280;47463;49.884;10.010;2023-04-01T01:35:06;100290;;;8.8;80
61571;BME280;47463;49.884;10.010;2023-04-01T01:40:01;100290;;;8.8;79
61571;BME280;47463;49.884;10.010;2023-04-01T01:45:01;100280;;;8.7;80
61571;BME280;47463;49.884;10.010;2023-04-01T01:50:01;100280;;;8.7;80
61571;BME280;47463;49.884;10.010;2023-04-01T01:55:01;100280;;;8.7;80
61571;BME280;47463;49.884;10.010;2023-04-01T02:00:02;100270;;;8.7;80
61571;BME280;47463;49.884;10.010;2023-04-01T02:05:01;100270;;;8.7;80
61571;BME280;47463;49.884;10.010;2023-04-01T02:10:01;100280;;;8.7;80
61571;BME280;47463;49.884;10.010;2023-04-01T02:15:03;100280;;;8.7;79
61571;BME280;47463;49.884;10.010;2023-04-01T02:20:01;100280;;;8.7;79
61571;BME280;47463;49.884;10.010;2023-04-01T02:25:02;100270;;;8.6;80
61571;BME280;47463;49.884;10.010;2023-04-01T02:30:01;100270;;;8.6;80
61571;BME280;47463;49.884;10.010;2023-04-01T02:35:01;100280;;;8.6;80
61571;BME280;47463;49.884;10.010;2023-04-01T02:40:01;100270;;;8.7;79
61571;BME280;47463;49.884;10.010;2023-04-01T02:45:01;100270;;;8.6;80
61571;BME280;47463;49.884;10.010;2023-04-01T02:50:01;100290;;;8.7;79
61571;BME280;47463;49.884;10.010;2023-04-01T02:55:01;100280;;;8.6;79
61571;BME280;47463;49.884;10.010;2023-04-01T03:00:01;100290;;;8.5;80
61571;BME280;47463;49.884;10.010;2023-04-01T03:05:01;100290;;;8.6;80
61571;BME280;47463;49.884;10.010;2023-04-01T03:10:01;100290;;;8.6;79
61571;BME280;47463;49.884;10.010;2023-04-01T03:15:01;100290;;;8.6;79
61571;BME280;47463;49.884;10.010;2023-04-01T03:20:01;100280;;;8.6;79
61571;BME280;47463;49.884;10.010;2023-04-01T03:25:01;100280;;;8.5;79
61571;BME280;47463;49.884;10.010;2023-04-01T03:30:01;100270;;;8.5;79
61571;BME280;47463;49.884;10.010;2023-04-01T03:35:01;100280;;;8.6;79
61571;BME280;47463;49.884;10.010;2023-04-01T03:40:01;100290;;;8.6;79
61571;BME280;47463;49.884;10.010;2023-04-01T03:45:01;100290;;;8.7;79
61571;BME280;47463;49.884;10.010;2023-04-01T03:50:01;100280;;;8.6;79
61571;BME280;47463;49.884;10.010;2023-04-01T03:55:01;100280;;;8.6;79
61571;BME280;47463;49.884;10.010;2023-04-01T04:00:01;100290;;;8.6;79
61571;BME280;47463;49.884;10.010;2023-04-01T04:05:01;100280;;;8.6;79
61571;BME280;47463;49.884;10.010;2023-04-01T04:10:01;100280;;;8.6;79
61571;BME280;47463;49.884;10.010;2023-04-01T04:15:01;100280;;;8.7;79
61571;BME280;47463;49.884;10.010;2023-04-01T04:20:01;100280;;;8.6;79
61571;BME280;47463;49.884;10.010;2023-04-01T04:25:01;100290;;;8.6;80
61571;BME280;47463;49.884;10.010;2023-04-01T04:30:01;100280;;;8.6;79
61571;BME280;47463;49.884;10.010;2023-04-01T04:35:01;100280;;;8.6;79
61571;BME280;47463;49.884;10.010;2023-04-01T04:40:01;100280;;;8.7;78
61571;BME280;47463;49.884;10.010;2023-04-01T04:45:01;100290;;;8.7;78
61571;BME280;47463;49.884;10.010;2023-04-01T04:50:01;100290;;;8.6;79
61571;BME280;47463;49.884;10.010;2023-04-01T04:55:01;100290;;;8.6;79
61571;BME280;47463;49.884;10.010;2023-04-01T05:00:01;100280;;;8.6;79
61571;BME280;47463;49.884;10.010;2023-04-01T05:05:01;100280;;;8.5;79
61571;BME280;47463;49.884;10.010;2023-04-01T05:10:01;100280;;;8.4;80
61571;BME280;47463;49.884;10.010;2023-04-01T05:15:01;100280;;;8.4;80
61571;BME280;47463;49.884;10.010;2023-04-01T05:20:01;100280;;;8.4;81
61571;BME280;47463;49.884;10.010;2023-04-01T05:25:01;100290;;;8.4;80
61571;BME280;47463;49.884;10.010;2023-04-01T05:30:01;100290;;;8.3;80
61571;BME280;47463;49.884;10.010;2023-04-01T05:35:01;100290;;;8.2;81
61571;BME280;47463;49.884;10.010;2023-04-01T05:40:01;100290;;;8.2;81
61571;BME280;47463;49.884;10.010;2023-04-01T05:45:01;100280;;;8.2;81
61571;BME280;47463;49.884;10.010;2023-04-01T05:50:01;100290;;;8.2;81
61571;BME280;47463;49.884;10.010;2023-04-01T05:55:01;100290;;;8.2;81
61571;BME280;47463;49.884;10.010;2023-04-01T06:00:01;100290;;;8.2;81
61571;BME280;47463;49.884;10.010;2023-04-01T06:05:02;100300;;;8.2;81
61571;BME280;47463;49.884;10.010;2023-04-01T06:10:01;100290;;;8.2;81
61571;BME280;47463;49.884;10.010;2023-04-01T06:15:04;100300;;;8.2;81
61571;BME280;47463;49.884;10.010;2023-04-01T06:20:02;100290;;;8.2;81
61571;BME280;47463;49.884;10.010;2023-04-01T06:25:04;100280;;;8.2;81
61571;BME280;47463;49.884;10.010;2023-04-01T06:30:03;100290;;;8.3;81
61571;BME280;47463;49.884;10.010;2023-04-01T06:35:11;100290;;;8.2;82
61571;BME280;47463;49.884;10.010;2023-04-01T06:40:07;100280;;;8.3;81
61571;BME280;47463;49.884;10.010;2023-04-01T06:45:04;100290;;;8.2;82
61571;BME280;47463;49.884;10.010;2023-04-01T06:50:03;100290;;;8.2;82
61571;BME280;47463;49.884;10.010;2023-04-01T06:55:02;100290;;;8.2;82
61571;BME280;47463;49.884;10.010;2023-04-01T07:00:02;100300;;;8.3;82
61571;BME280;47463;49.884;10.010;2023-04-01T07:05:01;100290;;;8.4;82
61571;BME280;47463;49.884;10.010;2023-04-01T07:10:02;100290;;;8.4;82
61571;BME280;47463;49.884;10.010;2023-04-01T07:15:01;100290;;;8.6;81
61571;BME280;47463;49.884;10.010;2023-04-01T07:20:02;100290;;;8.7;81
61571;BME280;47463;49.884;10.010;2023-04-01T07:25:02;100290;;;8.7;80
61571;BME280;47463;49.884;10.010;2023-04-01T07:30:01;100290;;;8.7;81
61571;BME280;47463;49.884;10.010;2023-04-01T07:35:04;100290;;;8.7;81
61571;BME280;47463;49.884;10.010;2023-04-01T07:40:04;100290;;;8.7;81
61571;BME280;47463;49.884;10.010;2023-04-01T07:45:02;100280;;;8.7;81
61571;BME280;47463;49.884;10.010;2023-04-01T07:50:02;100300;;;8.7;81
61571;BME280;47463;49.884;10.010;2023-04-01T07:55:02;100300;;;8.7;81
61571;BME280;47463;49.884;10.010;2023-04-01T08:00:02;100300;;;8.7;82
61571;BME280;47463;49.884;10.010;2023-04-01T08:05:04;100300;;;8.7;82
61571;BME280;47463;49.884;10.010;2023-04-01T08:10:02;100300;;;8.7;82
61571;BME280;47463;49.884;10.010;2023-04-01T08:15:05;100310;;;8.7;82
61571;BME280;47463;49.884;10.010;2023-04-01T08:20:11;100310;;;8.6;81
61571;BME280;47463;49.884;10.010;2023-04-01T08:25:02;100310;;;8.6;83
61571;BME280;47463;49.884;10.010;2023-04-01T08:30:02;100330;;;8.6;82
61571;BME280;47463;49.884;10.010;2023-04-01T08:35:05;100320;;;8.6;82
61571;BME280;47463;49.884;10.010;2023-04-01T08:40:02;100330;;;8.6;83
61571;BME280;47463;49.884;10.010;2023-04-01T08:45:07;100340;;;8.5;84
61571;BME280;47463;49.884;10.010;2023-04-01T08:50:04;100340;;;8.5;84
61571;BME280;47463;49.884;10.010;2023-04-01T08:55:04;100330;;;8.5;84
61571;BME280;47463;49.884;10.010;2023-04-01T09:00:04;100330;;;8.4;85
61571;BME280;47463;49.884;10.010;2023-04-01T09:05:16;100330;;;8.3;85
61571;BME280;47463;49.884;10.010;2023-04-01T09:10:06;100330;;;8.3;85
61571;BME280;47463;49.884;10.010;2023-04-01T09:15:12;100340;;;8.3;85
61571;BME280;47463;49.884;10.010;2023-04-01T09:20:05;100340;;;8.3;85
61571;BME280;47463;49.884;10.010;2023-04-01T09:25:14;100330;;;8.4;85
61571;BME280;47463;49.884;10.010;2023-04-01T09:30:33;100340;;;8.4;85
61571;BME280;47463;49.884;10.010;2023-04-01T09:35:02;100330;;;8.6;85
61571;BME280;47463;49.884;10.010;2023-04-01T09:40:08;100340;;;8.6;85
61571;BME280;47463;49.884;10.010;2023-04-01T09:45:01;100330;;;8.7;84
61571;BME280;47463;49.884;10.010;2023-04-01T09:50:13;100340;;;8.8;85
61571;BME280;47463;49.884;10.010;2023-04-01T09:55:06;100330;;;8.8;84
61571;BME280;47463;49.884;10.010;2023-04-01T10:00:20;100330;;;8.8;85
61571;BME280;47463;49.884;10.010;2023-04-01T10:05:13;100340;;;8.8;84
61571;BME280;47463;49.884;10.010;2023-04-01T10:10:06;100340;;;8.8;84
61571;BME280;47463;49.884;10.010;2023-04-01T10:16:09;100340;;;9;84
61571;BME280;47463;49.884;10.010;2023-04-01T10:20:02;100330;;;9;84
61571;BME280;47463;49.884;10.010;2023-04-01T10:25:04;100340;;;9.3;84
61571;BME280;47463;49.884;10.010;2023-04-01T10:30:05;100330;;;9.3;84
61571;BME280;47463;49.884;10.010;2023-04-01T10:35:05;100330;;;9.2;83
61571;BME280;47463;49.884;10.010;2023-04-01T10:40:12;100330;;;9.2;83
61571;BME280;47463;49.884;10.010;2023-04-01T10:45:09;100330;;;9.2;84
61571;BME280;47463;49.884;10.010;2023-04-01T10:50:09;100340;;;9.2;83
61571;BME280;47463;49.884;10.010;2023-04-01T10:55:19;100330;;;9.3;84
61571;BME280;47463;49.884;10.010;2023-04-01T11:00:06;100330;;;9.5;84
61571;BME280;47463;49.884;10.010;2023-04-01T11:05:38;100330;;;9.7;84
61571;BME280;47463;49.884;10.010;2023-04-01T11:10:15;100330;;;9.6;84
61571;BME280;47463;49.884;10.010;2023-04-01T11:15:06;100330;;;9.4;84
61571;BME280;47463;49.884;10.010;2023-04-01T11:20:13;100330;;;9.3;85
61571;BME280;47463;49.884;10.010;2023-04-01T11:25:06;100330;;;9.4;85
61571;BME280;47463;49.884;10.010;2023-04-01T11:30:04;100330;;;9.4;86
61571;BME280;47463;49.884;10.010;2023-04-01T11:35:08;100340;;;9.5;86
61571;BME280;47463;49.884;10.010;2023-04-01T11:40:05;100340;;;9.5;86
61571;BME280;47463;49.884;10.010;2023-04-01T11:45:06;100350;;;9.5;86
61571;BME280;47463;49.884;10.010;2023-04-01T11:50:11;100340;;;9.5;87
61571;BME280;47463;49.884;10.010;2023-04-01T11:55:05;100340;;;9.4;87
61571;BME280;47463;49.884;10.010;2023-04-01T12:00:05;100350;;;9.4;88
61571;BME280;47463;49.884;10.010;2023-04-01T12:05:03;100350;;;9.3;87
61571;BME280;47463;49.884;10.010;2023-04-01T12:10:02;100360;;;9.3;88
61571;BME280;47463;49.884;10.010;2023-04-01T12:15:03;100360;;;9.5;88
61571;BME280;47463;49.884;10.010;2023-04-01T12:20:20;100360;;;9.4;88
61571;BME280;47463;49.884;10.010;2023-04-01T12:25:07;100350;;;9.6;88
61571;BME280;47463;49.884;10.010;2023-04-01T12:31:09;100360;;;9.4;88
61571;BME280;47463;49.884;10.010;2023-04-01T12:35:03;100360;;;9.4;88
61571;BME280;47463;49.884;10.010;2023-04-01T12:40:02;100360;;;9.3;89
61571;BME280;47463;49.884;10.010;2023-04-01T12:45:02;100370;;;9.3;89
61571;BME280;47463;49.884;10.010;2023-04-01T12:50:08;100370;;;9.3;89
61571;BME280;47463;49.884;10.010;2023-04-01T12:55:35;100370;;;9.3;89
61571;BME280;47463;49.884;10.010;2023-04-01T13:00:05;100370;;;9.4;89
61571;BME280;47463;49.884;10.010;2023-04-01T13:05:05;100370;;;9.4;89
61571;BME280;47463;49.884;10.010;2023-04-01T13:10:02;100370;;;9.6;89
61571;BME280;47463;49.884;10.010;2023-04-01T13:15:10;100380;;;9.8;88
61571;BME280;47463;49.884;10.010;2023-04-01T13:20:02;100370;;;9.8;88
61571;BME280;47463;49.884;10.010;2023-04-01T13:25:02;100370;;;9.8;88
61571;BME280;47463;49.884;10.010;2023-04-01T13:30:03;100380;;;9.8;88
61571;BME280;47463;49.884;10.010;2023-04-01T13:35:05;100380;;;9.7;88
61571;BME280;47463;49.884;10.010;2023-04-01T13:40:02;100390;;;9.7;88
61571;BME280;47463;49.884;10.010;2023-04-01T13:45:01;100390;;;9.7;88
61571;BME280;47463;49.884;10.010;2023-04-01T13:50:34;100390;;;9.7;89
61571;BME280;47463;49.884;10.010;2023-04-01T13:55:20;100390;;;9.7;89
61571;BME280;47463;49.884;10.010;2023-04-01T14:00:03;100390;;;9.6;89
61571;BME280;47463;49.884;10.010;2023-04-01T14:05:07;100390;;;9.5;89
61571;BME280;47463;49.884;10.010;2023-04-01T14:10:05;100390;;;9.6;89
61571;BME280;47463;49.884;10.010;2023-04-01T14:15:07;100390;;;9.5;89
61571;BME280;47463;49.884;10.010;2023-04-01T14:20:07;100400;;;9.5;89
61571;BME280;47463;49.884;10.010;2023-04-01T14:25:06;100400;;;9.4;89
61571;BME280;47463;49.884;10.010;2023-04-01T14:30:08;100400;;;9.5;89
61571;BME280;47463;49.884;10.010;2023-04-01T14:35:09;100400;;;9.5;90
61571;BME280;47463;49.884;10.010;2023-04-01T14:40:05;100400;;;9.6;89
61571;BME280;47463;49.884;10.010;2023-04-01T14:45:02;100400;;;9.6;89
61571;BME280;47463;49.884;10.010;2023-04-01T14:50:03;100410;;;9.7;89
61571;BME280;47463;49.884;10.010;2023-04-01T14:55:01;100410;;;9.7;89
61571;BME280;47463;49.884;10.010;2023-04-01T15:00:09;100410;;;9.8;89
61571;BME280;47463;49.884;10.010;2023-04-01T15:05:04;100410;;;9.8;88
61571;BME280;47463;49.884;10.010;2023-04-01T15:10:02;100420;;;9.8;89
61571;BME280;47463;49.884;10.010;2023-04-01T15:15:03;100430;;;9.7;89
61571;BME280;47463;49.884;10.010;2023-04-01T15:20:04;100430;;;9.7;89
61571;BME280;47463;49.884;10.010;2023-04-01T15:25:05;100430;;;9.6;89
61571;BME280;47463;49.884;10.010;2023-04-01T15:30:02;100430;;;9.7;89
61571;BME280;47463;49.884;10.010;2023-04-01T15:35:03;100440;;;9.6;89
61571;BME280;47463;49.884;10.010;2023-04-01T15:40:02;100440;;;9.5;89
61571;BME280;47463;49.884;10.010;2023-04-01T15:45:03;100450;;;9.5;89
61571;BME280;47463;49.884;10.010;2023-04-01T15:50:21;100460;;;9.6;90
61571;BME280;47463;49.884;10.010;2023-04-01T15:55:07;100460;;;9.6;89
61571;BME280;47463;49.884;10.010;2023-04-01T16:00:05;100460;;;9.6;89
61571;BME280;47463;49.884;10.010;2023-04-01T16:05:03;100460;;;9.6;90
61571;BME280;47463;49.884;10.010;2023-04-01T16:10:05;100470;;;9.5;90
61571;BME280;47463;49.884;10.010;2023-04-01T16:15:04;100470;;;9.4;89
61571;BME280;47463;49.884;10.010;2023-04-01T16:20:02;100470;;;9.3;90
61571;BME280;47463;49.884;10.010;2023-04-01T16:25:17;100480;;;9.3;90
61571;BME280;47463;49.884;10.010;2023-04-01T16:30:03;100480;;;9.3;90
61571;BME280;47463;49.884;10.010;2023-04-01T16:35:05;100500;;;9.3;90
61571;BME280;47463;49.884;10.010;2023-04-01T16:40:02;100490;;;9.3;90
61571;BME280;47463;49.884;10.010;2023-04-01T16:45:02;100500;;;9.3;90
61571;BME280;47463;49.884;10.010;2023-04-01T16:50:05;100510;;;9.3;90
61571;BME280;47463;49.884;10.010;2023-04-01T16:55:01;100510;;;9.3;90
61571;BME280;47463;49.884;10.010;2023-04-01T17:00:02;100510;;;9.2;90
61571;BME280;47463;49.884;10.010;2023-04-01T17:05:02;100520;;;9.2;90
61571;BME280;47463;49.884;10.010;2023-04-01T17:10:05;100530;;;9.2;90
61571;BME280;47463;49.884;10.010;2023-04-01T17:15:02;100540;;;9.1;91
61571;BME280;47463;49.884;10.010;2023-04-01T17:20:04;100550;;;9.1;91
61571;BME280;47463;49.884;10.010;2023-04-01T17:25:07;100550;;;9;91
61571;BME280;47463;49.884;10.010;2023-04-01T17:30:06;100550;;;9;91
61571;BME280;47463;49.884;10.010;2023-04-01T17:35:01;100550;;;9;91
61571;BME280;47463;49.884;10.010;2023-04-01T17:40:06;100570;;;9;91
61571;BME280;47463;49.884;10.010;2023-04-01T17:45:02;100570;;;9;91
61571;BME280;47463;49.884;10.010;2023-04-01T17:50:02;100580;;;9;90
61571;BME280;47463;49.884;10.010;2023-04-01T17:55:07;100580;;;9;90
61571;BME280;47463;49.884;10.010;2023-04-01T18:00:02;100600;;;8.9;90
61571;BME280;47463;49.884;10.010;2023-04-01T18:05:04;100600;;;8.9;89
61571;BME280;47463;49.884;10.010;2023-04-01T18:10:04;100610;;;8.9;89
61571;BME280;47463;49.884;10.010;2023-04-01T18:15:04;100610;;;8.8;89
61571;BME280;47463;49.884;10.010;2023-04-01T18:20:03;100630;;;8.8;89
61571;BME280;47463;49.884;10.010;2023-04-01T18:25:02;100640;;;8.7;90
61571;BME280;47463;49.884;10.010;2023-04-01T18:30:03;100650;;;8.7;90
61571;BME280;47463;49.884;10.010;2023-04-01T18:35:02;100650;;;8.7;90
61571;BME280;47463;49.884;10.010;2023-04-01T18:40:04;100660;;;8.8;89
61571;BME280;47463;49.884;10.010;2023-04-01T18:45:01;100680;;;8.7;89
61571;BME280;47463;49.884;10.010;2023-04-01T18:50:02;100680;;;8.7;89
61571;BME280;47463;49.884;10.010;2023-04-01T18:55:34;100680;;;8.7;89
61571;BME280;47463;49.884;10.010;2023-04-01T19:00:03;100680;;;8.6;89
61571;BME280;47463;49.884;10.010;2023-04-01T19:05:02;100700;;;8.6;89
61571;BME280;47463;49.884;10.010;2023-04-01T19:10:06;100690;;;8.6;89
61571;BME280;47463;49.884;10.010;2023-04-01T19:15:06;100710;;;8.5;90
61571;BME280;47463;49.884;10.010;2023-04-01T19:20:03;100720;;;8.5;90
61571;BME280;47463;49.884;10.010;2023-04-01T19:25:06;100720;;;8.5;90
61571;BME280;47463;49.884;10.010;2023-04-01T19:30:07;100720;;;8.5;90
61571;BME280;47463;49.884;10.010;2023-04-01T19:35:06;100730;;;8.5;90
61571;BME280;47463;49.884;10.010;2023-04-01T19:40:08;100730;;;8.5;90
61571;BME280;47463;49.884;10.010;2023-04-01T19:45:04;100730;;;8.5;89
61571;BME280;47463;49.884;10.010;2023-04-01T19:50:02;100740;;;8.5;90
61571;BME280;47463;49.884;10.010;2023-04-01T19:55:02;100750;;;8.5;90
61571;BME280;47463;49.884;10.010;2023-04-01T20:00:02;100750;;;8.5;90
61571;BME280;47463;49.884;10.010;2023-04-01T20:05:03;100770;;;8.5;90
61571;BME280;47463;49.884;10.010;2023-04-01T20:10:03;100780;;;8.2;91
61571;BME280;47463;49.884;10.010;2023-04-01T20:15:02;100790;;;8.1;90
61571;BME280;47463;49.884;10.010;2023-04-01T20:20:01;100780;;;8.1;90
61571;BME280;47463;49.884;10.010;2023-04-01T20:25:02;100790;;;8;91
61571;BME280;47463;49.884;10.010;2023-04-01T20:30:06;100790;;;7.9;91
61571;BME280;47463;49.884;10.010;2023-04-01T20:35:08;100800;;;7.9;92
61571;BME280;47463;49.884;10.010;2023-04-01T20:40:08;100800;;;8.1;91
61571;BME280;47463;49.884;10.010;2023-04-01T20:45:08;100800;;;8.2;91
61571;BME280;47463;49.884;10.010;2023-04-01T20:50:02;100800;;;8.2;91
61571;BME280;47463;49.884;10.010;2023-04-01T20:55:06;100820;;;8.1;92
61571;BME280;47463;49.884;10.010;2023-04-01T21:00:03;100820;;;8.1;92
61571;BME280;47463;49.884;10.010;2023-04-01T21:05:15;100820;;;8.1;91
61571;BME280;47463;49.884;10.010;2023-04-01T21:10:07;100830;;;8.2;91
61571;BME280;47463;49.884;10.010;2023-04-01T21:15:03;100830;;;8.2;91
61571;BME280;47463;49.884;10.010;2023-04-01T21:20:04;100840;;;8.2;91
61571;BME280;47463;49.884;10.010;2023-04-01T21:25:03;100850;;;8.2;91
61571;BME280;47463;49.884;10.010;2023-04-01T21:30:03;100850;;;8.1;91
61571;BME280;47463;49.884;10.010;2023-04-01T21:35:02;100850;;;8.1;91
61571;BME280;47463;49.884;10.010;2023-04-01T21:40:11;100870;;;8.1;91
61571;BME280;47463;49.884;10.010;2023-04-01T21:45:04;100870;;;8.1;91
61571;BME280;47463;49.884;10.010;2023-04-01T21:50:06;100870;;;8.1;91
61571;BME280;47463;49.884;10.010;2023-04-01T21:56:10;100880;;;8.1;90
61571;BME280;47463;49.884;10.010;2023-04-01T22:00:07;100890;;;8.1;90
61571;BME280;47463;49.884;10.010;2023-04-01T22:05:02;100900;;;8.1;90
61571;BME280;47463;49.884;10.010;2023-04-01T22:10:03;100900;;;8.1;90
61571;BME280;47463;49.884;10.010;2023-04-01T22:15:02;100900;;;8.1;90
61571;BME280;47463;49.884;10.010;2023-04-01T22:20:04;100900;;;8.1;90
61571;BME280;47463;49.884;10.010;2023-04-01T22:25:03;100910;;;8.1;90
61571;BME280;47463;49.884;10.010;2023-04-01T22:30:04;100910;;;8.1;90
61571;BME280;47463;49.884;10.010;2023-04-01T22:35:04;100920;;;8.1;90
61571;BME280;47463;49.884;10.010;2023-04-01T22:40:07;100920;;;8.1;90
61571;BME280;47463;49.884;10.010;2023-04-01T22:45:03;100920;;;8.1;90
61571;BME280;47463;49.884;10.010;2023-04-01T22:50:02;100940;;;8.1;90
61571;BME280;47463;49.884;10.010;2023-04-01T22:55:02;100940;;;8;90
61571;BME280;47463;49.884;10.010;2023-04-01T23:00:04;100940;;;8;90
61571;BME280;47463;49.884;10.010;2023-04-01T23:05:02;100940;;;8.1;89
61571;BME280;47463;49.884;10.010;2023-04-01T23:10:01;100940;;;8;89
61571;BME280;47463;49.884;10.010;2023-04-01T23:15:01;100960;;;8;89
61571;BME280;47463;49.884;10.010;2023-04-01T23:20:03;100960;;;8;89
61571;BME280;47463;49.884;10.010;2023-04-01T23:25:04;100960;;;8;89
61571;BME280;47463;49.884;10.010;2023-04-01T23:30:01;100970;;;8;90
61571;BME280;47463;49.884;10.010;2023-04-01T23:35:01;100980;;;8;90
61571;BME280;47463;49.884;10.010;2023-04-01T23:40:01;100980;;;7.9;90
61571;BME280;47463;49.884;10.010;2023-04-01T23:45:02;100980;;;7.9;90
61571;BME280;47463;49.884;10.010;2023-04-01T23:50:01;100990;;;7.9;90
61571;BME280;47463;49.884;10.010;2023-04-01T23:55:01;101000;;;7.9;90
